Time;durP1;ratioP1;P1;durP2;ratioP2;P2;SDS_P1;SDS_P2;PMS_P1;PMS_P2;Temp;Humidity;BMP_temperature;BMP_pressure;BME280_temperature;BME280_humidity;BME280_pressure;Samples;Min_cycle;Max_cycle;Signal;HPM_P1;HPM_P2
2023/01/14 00:01:49;;;;;;;;;;;;;;;-146.02;100.00;65310.94;5071585;28;19912;-65
2023/01/14 00:04:15;;;;;;;;;;;;;;;-146.02;100.00;65310.94;5069476;28;19916;-64
2023/01/14 00:06:40;;;;;;;;;;;;;;;-146.02;100.00;65310.94;5070590;28;20353;-64
2023/01/14 00:09:14;;;;;;;;;;;;;;;-146.02;100.00;65310.94;5070942;28;19919;-64
2023/01/14 00:11:46;;;;;;;;;;;;;;;-146.02;100.00;65310.94;5067212;28;19923;-65
2023/01/14 00:14:32;;;;;;;;;;;;;;;-146.02;100.00;65310.94;5070305;28;19912;-65
2023/01/14 00:16:58;;;;;;;;;;;;;;;-146.02;100.00;65310.94;5069586;28;19916;-65
2023/01/14 00:19:24;;;;;;;;;;;;;;;-146.02;100.00;65310.94;5070412;28;19948;-65
2023/01/14 00:21:50;;;;;;;;;;;;;;;-146.02;100.00;65310.94;5069668;28;20389;-64
2023/01/14 00:24:18;;;;;;;;;;;;;;;-146.02;100.00;65310.94;5068783;28;20015;-64
2023/01/14 00:26:44;;;;;;;;;;;;;;;-146.02;100.00;65310.94;5073935;28;20023;-64
2023/01/14 00:29:17;;;;;;;;;;;;;;;-146.02;100.00;65310.94;5068767;28;19995;-64
2023/01/14 00:31:43;;;;;;;;;;;;;;;-146.02;100.00;65310.94;5063776;28;19920;-65
2023/01/14 00:34:08;;;;;;;;;;;;;;;-146.02;100.00;65310.94;5070710;28;19943;-65
2023/01/14 00:36:34;;;;;;;;;;;;;;;-146.02;100.00;65310.94;5065218;28;19920;-65
2023/01/14 00:38:59;;;;;;;;;;;;;;;-146.02;100.00;65310.94;5066765;28;19913;-65
2023/01/14 00:41:25;;;;;;;;;;;;;;;-146.02;100.00;65310.94;5065151;28;19917;-65
2023/01/14 00:43:52;;;;;;;;;;;;;;;-146.02;100.00;65310.94;5064349;28;19927;-65
2023/01/14 00:46:19;;;;;;;;;;;;;;;-146.02;100.00;65310.94;5067287;28;20037;-65
2023/01/14 00:48:44;;;;;;;;;;;;;;;-146.02;100.00;65310.94;5074128;28;19958;-65
2023/01/14 00:51:11;;;;;;;;;;;;;;;-146.02;100.00;65310.94;5074333;28;19913;-65
2023/01/14 00:53:37;;;;;;;;;;;;;;;-146.02;100.00;65310.94;5072661;28;20051;-65
2023/01/14 00:56:02;;;;;;;;;;;;;;;-146.02;100.00;65310.94;5074988;28;19912;-65
2023/01/14 00:58:27;;;;;;;;;;;;;;;-146.02;100.00;65310.94;5073867;28;19912;-65
2023/01/14 01:00:53;;;;;;;;;;;;;;;-146.02;100.00;65310.94;5071688;28;20021;-65
2023/01/14 01:03:19;;;;;;;;;;;;;;;-146.02;100.00;65310.94;5073179;28;19917;-65
2023/01/14 01:05:45;;;;;;;;;;;;;;;-146.02;100.00;65310.94;5072052;28;20429;-65
2023/01/14 01:08:15;;;;;;;;;;;;;;;-146.02;100.00;65310.94;5072770;28;19931;-64
2023/01/14 01:10:42;;;;;;;;;;;;;;;-146.02;100.00;65310.94;5071328;28;19942;-64
2023/01/14 01:13:07;;;;;;;;;;;;;;;-146.02;100.00;65310.94;5072822;28;19916;-63
2023/01/14 01:15:33;;;;;;;;;;;;;;;-146.02;100.00;65310.94;5074976;28;19919;-64
2023/01/14 01:17:59;;;;;;;;;;;;;;;-146.02;100.00;65310.94;5072877;28;20308;-64
2023/01/14 01:20:25;;;;;;;;;;;;;;;-146.02;100.00;65310.94;5073734;28;19975;-62
2023/01/14 01:22:50;;;;;;;;;;;;;;;-146.02;100.00;65310.94;5073758;28;19955;-63
2023/01/14 01:25:15;;;;;;;;;;;;;;;-146.02;100.00;65310.94;5067855;28;19962;-63
2023/01/14 01:27:41;;;;;;;;;;;;;;;-146.02;100.00;65310.94;5076254;28;20355;-63
2023/01/14 01:30:07;;;;;;;;;;;;;;;-146.02;100.00;65310.94;5073489;28;19918;-63
2023/01/14 01:32:32;;;;;;;;;;;;;;;-146.02;100.00;65310.94;5073871;28;19966;-63
2023/01/14 01:34:58;;;;;;;;;;;;;;;-146.02;100.00;65310.94;5073014;28;19916;-63
2023/01/14 01:37:23;;;;;;;;;;;;;;;-146.02;100.00;65310.94;5072687;28;20731;-64
2023/01/14 01:39:49;;;;;;;;;;;;;;;-146.02;100.00;65310.94;5074574;28;19916;-64
2023/01/14 01:42:15;;;;;;;;;;;;;;;-146.02;100.00;65310.94;5072578;28;20007;-64
2023/01/14 01:44:40;;;;;;;;;;;;;;;-146.02;100.00;65310.94;5068690;28;20369;-64
2023/01/14 01:47:08;;;;;;;;;;;;;;;-146.02;100.00;65310.94;5072730;28;20606;-64
2023/01/14 01:49:34;;;;;;;;;;;;;;;-146.02;100.00;65310.94;5071806;28;19963;-64
2023/01/14 01:52:06;;;;;;;;;;;;;;;-146.02;100.00;65310.94;5074148;28;19912;-64
2023/01/14 01:54:37;;;;;;;;;;;;;;;-146.02;100.00;65310.94;5072199;28;19912;-64
2023/01/14 01:57:05;;;;;;;;;;;;;;;-146.02;100.00;65310.94;5073349;28;19917;-64
2023/01/14 01:59:33;;;;;;;;;;;;;;;-146.02;100.00;65310.94;5073119;28;19921;-64
2023/01/14 02:01:59;;;;;;;;;;;;;;;-146.02;100.00;65310.94;5070518;28;19958;-64
2023/01/14 02:04:24;;;;;;;;;;;;;;;-146.02;100.00;65310.94;5071794;28;19955;-64
2023/01/14 02:06:50;;;;;;;;;;;;;;;-146.02;100.00;65310.94;5073028;28;19918;-64
2023/01/14 02:09:16;;;;;;;;;;;;;;;-146.02;100.00;65310.94;5073080;28;19958;-64
2023/01/14 02:12:02;;;;;;;;;;;;;;;-146.02;100.00;65310.94;5070838;28;20019;-64
2023/01/14 02:14:28;;;;;;;;;;;;;;;-146.02;100.00;65310.94;5071660;28;19913;-64
2023/01/14 02:17:05;;;;;;;;;;;;;;;-146.02;100.00;65310.94;5073150;28;19913;-64
2023/01/14 02:19:30;;;;;;;;;;;;;;;-146.02;100.00;65310.94;5072455;28;19996;-64
2023/01/14 02:21:58;;;;;;;;;;;;;;;-146.02;100.00;65310.94;5072870;28;19943;-64
2023/01/14 02:24:30;;;;;;;;;;;;;;;-146.02;100.00;65310.94;5070062;28;20022;-64
2023/01/14 02:27:03;;;;;;;;;;;;;;;-146.02;100.00;65310.94;5073953;28;20289;-64
2023/01/14 02:29:28;;;;;;;;;;;;;;;-146.02;100.00;65310.94;5072483;28;20266;-64
2023/01/14 02:32:12;;;;;;;;;;;;;;;-146.02;100.00;65310.94;5066576;28;19920;-63
2023/01/14 02:34:55;;;;;;;;;;;;;;;-146.02;100.00;65310.94;5061283;28;19913;-63
2023/01/14 02:37:36;;;;;;;;;;;;;;;-146.02;100.00;65310.94;5071389;28;19917;-63
2023/01/14 02:40:09;;;;;;;;;;;;;;;-146.02;100.00;65310.94;5064878;28;19917;-63
2023/01/14 02:45:47;;;;;;;;;;;;;;;-146.02;100.00;65310.94;5069532;28;19936;-64
2023/01/14 02:48:13;;;;;;;;;;;;;;;-146.02;100.00;65310.94;5070536;28;19920;-64
2023/01/14 02:50:38;;;;;;;;;;;;;;;-146.02;100.00;65310.94;5071146;28;19919;-63
2023/01/14 02:53:10;;;;;;;;;;;;;;;-146.02;100.00;65310.94;5065466;28;19916;-68
2023/01/14 02:55:36;;;;;;;;;;;;;;;-146.02;100.00;65310.94;5044787;28;19924;-68
2023/01/14 02:58:02;;;;;;;;;;;;;;;-146.02;100.00;65310.94;5061602;28;19920;-68
2023/01/14 03:00:33;;;;;;;;;;;;;;;-146.02;100.00;65310.94;5062082;28;20388;-68
2023/01/14 03:03:11;;;;;;;;;;;;;;;-146.02;100.00;65310.94;5064009;28;19942;-67
2023/01/14 03:05:39;;;;;;;;;;;;;;;-146.02;100.00;65310.94;5066905;28;19916;-67
2023/01/14 03:08:17;;;;;;;;;;;;;;;-146.02;100.00;65310.94;5072988;28;20292;-67
2023/01/14 03:10:48;;;;;;;;;;;;;;;-146.02;100.00;65310.94;5054410;28;19913;-67
2023/01/14 03:13:30;;;;;;;;;;;;;;;-146.02;100.00;65310.94;5053260;28;19913;-67
2023/01/14 03:16:01;;;;;;;;;;;;;;;-146.02;100.00;65310.94;5052892;28;20375;-67
2023/01/14 03:18:31;;;;;;;;;;;;;;;-146.02;100.00;65310.94;5052659;28;20376;-67
2023/01/14 03:21:00;;;;;;;;;;;;;;;-146.02;100.00;65310.94;5052892;28;20003;-67
2023/01/14 03:23:26;;;;;;;;;;;;;;;-146.02;100.00;65310.94;5035667;28;19965;-67
2023/01/14 03:25:53;;;;;;;;;;;;;;;-146.02;100.00;65310.94;5053600;28;19917;-67
2023/01/14 03:28:20;;;;;;;;;;;;;;;-146.02;100.00;65310.94;5086673;28;19912;-67
2023/01/14 03:30:48;;;;;;;;;;;;;;;-146.02;100.00;65310.94;5070568;28;19923;-67
2023/01/14 03:33:26;;;;;;;;;;;;;;;-146.02;100.00;65310.94;5062558;28;19928;-67
2023/01/14 03:35:52;;;;;;;;;;;;;;;-146.02;100.00;65310.94;5056276;28;20011;-67
2023/01/14 03:38:34;;;;;;;;;;;;;;;-146.02;100.00;65310.94;5053614;28;20316;-67
2023/01/14 03:41:00;;;;;;;;;;;;;;;-146.02;100.00;65310.94;5053052;28;20264;-67
2023/01/14 03:43:43;;;;;;;;;;;;;;;-146.02;100.00;65310.94;5052650;28;19925;-67
2023/01/14 03:46:09;;;;;;;;;;;;;;;-146.02;100.00;65310.94;5053235;28;19978;-67
2023/01/14 03:48:35;;;;;;;;;;;;;;;-146.02;100.00;65310.94;5052668;28;19921;-67
2023/01/14 03:51:07;;;;;;;;;;;;;;;-146.02;100.00;65310.94;5055420;28;19919;-67
2023/01/14 03:53:47;;;;;;;;;;;;;;;-146.02;100.00;65310.94;5073064;28;20274;-67
2023/01/14 03:56:30;;;;;;;;;;;;;;;-146.02;100.00;65310.94;5073274;28;19913;-68
2023/01/14 03:59:01;;;;;;;;;;;;;;;-146.02;100.00;65310.94;5073253;28;19965;-68
2023/01/14 04:01:32;;;;;;;;;;;;;;;-146.02;100.00;65310.94;5073313;28;19927;-68
2023/01/14 04:03:58;;;;;;;;;;;;;;;-146.02;100.00;65310.94;5073556;28;20238;-68
2023/01/14 04:06:24;;;;;;;;;;;;;;;-146.02;100.00;65310.94;5073238;28;20549;-68
2023/01/14 04:08:50;;;;;;;;;;;;;;;-146.02;100.00;65310.94;5072794;28;20014;-68
2023/01/14 04:11:15;;;;;;;;;;;;;;;-146.02;100.00;65310.94;5073043;28;19912;-68
2023/01/14 04:16:24;;;;;;;;;;;;;;;-146.02;100.00;65310.94;5073024;28;20296;-67
2023/01/14 04:18:49;;;;;;;;;;;;;;;-146.02;100.00;65310.94;5074120;28;19912;-67
2023/01/14 04:21:15;;;;;;;;;;;;;;;-146.02;100.00;65310.94;5077439;28;20408;-67
2023/01/14 04:23:40;;;;;;;;;;;;;;;-146.02;100.00;65310.94;5077371;28;20427;-67
2023/01/14 04:26:06;;;;;;;;;;;;;;;-146.02;100.00;65310.94;5076872;28;19913;-67
2023/01/14 04:28:31;;;;;;;;;;;;;;;-146.02;100.00;65310.94;5097163;28;20383;-67
2023/01/14 04:30:56;;;;;;;;;;;;;;;-146.02;100.00;65310.94;5096946;28;19912;-67
2023/01/14 04:33:22;;;;;;;;;;;;;;;-146.02;100.00;65310.94;5069054;28;19935;-68
2023/01/14 04:35:50;;;;;;;;;;;;;;;-146.02;100.00;65310.94;5067410;28;20339;-68
2023/01/14 04:38:16;;;;;;;;;;;;;;;-146.02;100.00;65310.94;5077102;28;19957;-68
2023/01/14 04:40:42;;;;;;;;;;;;;;;-146.02;100.00;65310.94;5076166;28;19916;-67
2023/01/14 04:43:08;;;;;;;;;;;;;;;-146.02;100.00;65310.94;5037572;28;19921;-67
2023/01/14 04:45:35;;;;;;;;;;;;;;;-146.02;100.00;65310.94;5056360;28;19913;-67
2023/01/14 04:48:00;;;;;;;;;;;;;;;-146.02;100.00;65310.94;5055989;28;19967;-67
2023/01/14 04:50:31;;;;;;;;;;;;;;;-146.02;100.00;65310.94;5056755;28;19959;-67
2023/01/14 04:53:23;;;;;;;;;;;;;;;-146.02;100.00;65310.94;5056328;28;19990;-67
2023/01/14 04:55:50;;;;;;;;;;;;;;;-146.02;100.00;65310.94;5035150;28;19952;-67
2023/01/14 04:58:16;;;;;;;;;;;;;;;-146.02;100.00;65310.94;5056306;28;20023;-67
2023/01/14 05:00:42;;;;;;;;;;;;;;;-146.02;100.00;65310.94;5056208;28;20380;-67
2023/01/14 05:03:09;;;;;;;;;;;;;;;-146.02;100.00;65310.94;5056306;28;20358;-67
2023/01/14 05:05:34;;;;;;;;;;;;;;;-146.02;100.00;65310.94;5056341;28;19951;-66
2023/01/14 05:08:00;;;;;;;;;;;;;;;-146.02;100.00;65310.94;5056040;28;19959;-66
2023/01/14 05:10:26;;;;;;;;;;;;;;;-146.02;100.00;65310.94;5038332;28;19913;-66
2023/01/14 05:12:57;;;;;;;;;;;;;;;-146.02;100.00;65310.94;5055584;28;20365;-67
2023/01/14 05:15:26;;;;;;;;;;;;;;;-146.02;100.00;65310.94;5056133;28;20269;-67
2023/01/14 05:17:52;;;;;;;;;;;;;;;-146.02;100.00;65310.94;5055785;28;19923;-67
2023/01/14 05:20:17;;;;;;;;;;;;;;;-146.02;100.00;65310.94;5056067;28;20312;-67
2023/01/14 05:22:43;;;;;;;;;;;;;;;-146.02;100.00;65310.94;5055771;28;19917;-67
2023/01/14 05:25:08;;;;;;;;;;;;;;;-146.02;100.00;65310.94;5056220;28;19920;-67
2023/01/14 05:27:33;;;;;;;;;;;;;;;-146.02;100.00;65310.94;5080476;28;19955;-67
2023/01/14 05:29:59;;;;;;;;;;;;;;;-146.02;100.00;65310.94;5061808;28;19943;-67
2023/01/14 05:32:24;;;;;;;;;;;;;;;-146.02;100.00;65310.94;5075442;28;19956;-67
2023/01/14 05:34:49;;;;;;;;;;;;;;;-146.02;100.00;65310.94;5069357;28;20268;-67
2023/01/14 05:37:15;;;;;;;;;;;;;;;-146.02;100.00;65310.94;5055303;28;20357;-67
2023/01/14 05:39:40;;;;;;;;;;;;;;;-146.02;100.00;65310.94;5055906;28;19913;-67
2023/01/14 05:47:33;;;;;;;;;;;;;;;-146.02;100.00;65310.94;5054995;28;19919;-67
2023/01/14 05:49:58;;;;;;;;;;;;;;;-146.02;100.00;65310.94;5055317;28;20288;-67
2023/01/14 05:52:24;;;;;;;;;;;;;;;-146.02;100.00;65310.94;5055330;28;19921;-67
2023/01/14 05:54:49;;;;;;;;;;;;;;;-146.02;100.00;65310.94;5055226;28;19959;-67
2023/01/14 05:57:14;;;;;;;;;;;;;;;-146.02;100.00;65310.94;5055336;28;19923;-67
2023/01/14 05:59:40;;;;;;;;;;;;;;;-146.02;100.00;65310.94;5037697;28;20234;-67
2023/01/14 06:07:34;;;;;;;;;;;;;;;-146.02;100.00;65310.94;5055230;28;20242;-68
2023/01/14 06:09:59;;;;;;;;;;;;;;;-146.02;100.00;65310.94;5054885;28;19935;-68
2023/01/14 06:12:57;;;;;;;;;;;;;;;-146.02;100.00;65310.94;5054825;28;19917;-68
2023/01/14 06:15:19;;;;;;;;;;;;;;;-146.02;100.00;65310.94;5054222;28;19913;-68
2023/01/14 06:17:46;;;;;;;;;;;;;;;-146.02;100.00;65310.94;5054721;28;19923;-67
2023/01/14 06:20:11;;;;;;;;;;;;;;;-146.02;100.00;65310.94;5054868;28;20258;-67
2023/01/14 06:22:37;;;;;;;;;;;;;;;-146.02;100.00;65310.94;5054778;28;20004;-67
2023/01/14 06:25:03;;;;;;;;;;;;;;;-146.02;100.00;65310.94;5054574;28;19954;-67
2023/01/14 06:27:29;;;;;;;;;;;;;;;-146.02;100.00;65310.94;5078289;28;20310;-67
2023/01/14 06:29:54;;;;;;;;;;;;;;;-146.02;100.00;65310.94;5094727;28;20049;-67
2023/01/14 06:32:20;;;;;;;;;;;;;;;-146.02;100.00;65310.94;5094927;28;20014;-67
2023/01/14 06:34:45;;;;;;;;;;;;;;;-146.02;100.00;65310.94;5071825;28;19948;-67
2023/01/14 06:37:10;;;;;;;;;;;;;;;-146.02;100.00;65310.94;5061931;28;19962;-67
2023/01/14 06:39:35;;;;;;;;;;;;;;;-146.02;100.00;65310.94;5061725;28;19912;-67
2023/01/14 06:42:01;;;;;;;;;;;;;;;-146.02;100.00;65310.94;5074021;28;19916;-67
2023/01/14 06:44:27;;;;;;;;;;;;;;;-146.02;100.00;65310.94;5060991;28;20365;-67
2023/01/14 06:46:52;;;;;;;;;;;;;;;-146.02;100.00;65310.94;5054502;28;19919;-67
2023/01/14 06:49:18;;;;;;;;;;;;;;;-146.02;100.00;65310.94;5054141;28;19913;-67
2023/01/14 06:51:43;;;;;;;;;;;;;;;-146.02;100.00;65310.94;5053906;28;19999;-67
2023/01/14 06:54:08;;;;;;;;;;;;;;;-146.02;100.00;65310.94;5053892;28;19913;-68
2023/01/14 06:56:34;;;;;;;;;;;;;;;-146.02;100.00;65310.94;5054440;28;19955;-67
2023/01/14 06:58:59;;;;;;;;;;;;;;;-146.02;100.00;65310.94;5054197;28;19913;-67
2023/01/14 07:01:25;;;;;;;;;;;;;;;-146.02;100.00;65310.94;5054105;28;19913;-67
2023/01/14 07:03:50;;;;;;;;;;;;;;;-146.02;100.00;65310.94;5054067;28;19955;-67
2023/01/14 07:06:16;;;;;;;;;;;;;;;-146.02;100.00;65310.94;5053921;28;20376;-67
2023/01/14 07:08:41;;;;;;;;;;;;;;;-146.02;100.00;65310.94;5053656;28;20016;-67
2023/01/14 07:11:06;;;;;;;;;;;;;;;-146.02;100.00;65310.94;5053472;28;19913;-67
2023/01/14 07:13:32;;;;;;;;;;;;;;;-146.02;100.00;65310.94;5035459;28;19999;-67
2023/01/14 07:15:57;;;;;;;;;;;;;;;-146.02;100.00;65310.94;5053425;28;19935;-67
2023/01/14 07:18:23;;;;;;;;;;;;;;;-146.02;100.00;65310.94;5053475;28;19913;-67
2023/01/14 07:20:48;;;;;;;;;;;;;;;-146.02;100.00;65310.94;5053759;28;20011;-68
2023/01/14 07:23:13;;;;;;;;;;;;;;;-146.02;100.00;65310.94;5053702;28;20002;-68
2023/01/14 07:25:39;;;;;;;;;;;;;;;-146.02;100.00;65310.94;5053291;28;19912;-67
2023/01/14 07:28:04;;;;;;;;;;;;;;;-146.02;100.00;65310.94;5086845;28;19916;-67
2023/01/14 07:30:30;;;;;;;;;;;;;;;-146.02;100.00;65310.94;5071685;28;19920;-68
2023/01/14 07:33:01;;;;;;;;;;;;;;;-146.02;100.00;65310.94;5070191;28;19919;-67
2023/01/14 07:35:27;;;;;;;;;;;;;;;-146.02;100.00;65310.94;5072954;28;20361;-67
2023/01/14 07:37:54;;;;;;;;;;;;;;;-146.02;100.00;65310.94;5065351;28;20276;-68
2023/01/14 07:40:19;;;;;;;;;;;;;;;-146.02;100.00;65310.94;5053399;28;20349;-68
2023/01/14 07:42:45;;;;;;;;;;;;;;;-146.02;100.00;65310.94;5031332;28;19928;-68
2023/01/14 07:45:10;;;;;;;;;;;;;;;-146.02;100.00;65310.94;5033030;28;19920;-68
2023/01/14 07:47:35;;;;;;;;;;;;;;;-146.02;100.00;65310.94;5033320;28;19949;-68
2023/01/14 07:50:00;;;;;;;;;;;;;;;-146.02;100.00;65310.94;5032440;28;19967;-68
2023/01/14 07:52:26;;;;;;;;;;;;;;;-146.02;100.00;65310.94;5033176;28;19921;-68
2023/01/14 07:54:51;;;;;;;;;;;;;;;-146.02;100.00;65310.94;5032506;28;19917;-67
2023/01/14 07:57:17;;;;;;;;;;;;;;;-146.02;100.00;65310.94;5032585;28;19913;-67
2023/01/14 07:59:42;;;;;;;;;;;;;;;-146.02;100.00;65310.94;5033228;28;19920;-66
2023/01/14 08:02:11;;;;;;;;;;;;;;;-146.02;100.00;65310.94;5032860;28;20051;-66
2023/01/14 08:04:36;;;;;;;;;;;;;;;-146.02;100.00;65310.94;5033467;28;19913;-66
2023/01/14 08:07:04;;;;;;;;;;;;;;;-146.02;100.00;65310.94;5033062;28;20288;-66
2023/01/14 08:09:30;;;;;;;;;;;;;;;-146.02;100.00;65310.94;5033031;28;20412;-66
2023/01/14 08:11:55;;;;;;;;;;;;;;;-146.02;100.00;65310.94;5032446;28;19913;-66
2023/01/14 08:14:20;;;;;;;;;;;;;;;-146.02;100.00;65310.94;5032564;28;19921;-66
2023/01/14 08:16:46;;;;;;;;;;;;;;;-146.02;100.00;65310.94;5032923;28;20340;-67
2023/01/14 08:19:12;;;;;;;;;;;;;;;-146.02;100.00;65310.94;5034648;28;19923;-67
2023/01/14 08:21:37;;;;;;;;;;;;;;;-146.02;100.00;65310.94;5052131;28;20254;-67
2023/01/14 08:24:03;;;;;;;;;;;;;;;-146.02;100.00;65310.94;5051471;28;19970;-67
2023/01/14 08:26:29;;;;;;;;;;;;;;;-146.02;100.00;65310.94;5055262;28;19912;-67
2023/01/14 08:28:54;;;;;;;;;;;;;;;-146.02;100.00;65310.94;5071905;28;19931;-67
2023/01/14 08:31:19;;;;;;;;;;;;;;;-146.02;100.00;65310.94;5071890;28;19912;-66
2023/01/14 08:33:45;;;;;;;;;;;;;;;-146.02;100.00;65310.94;5072836;28;19920;-66
2023/01/14 08:36:11;;;;;;;;;;;;;;;-146.02;100.00;65310.94;5072604;28;19960;-66
2023/01/14 08:38:37;;;;;;;;;;;;;;;-146.02;100.00;65310.94;5072782;28;19920;-66
2023/01/14 08:41:03;;;;;;;;;;;;;;;-146.02;100.00;65310.94;5072713;28;19913;-66
2023/01/14 08:43:29;;;;;;;;;;;;;;;-146.02;100.00;65310.94;5065668;28;19963;-66
2023/01/14 08:45:54;;;;;;;;;;;;;;;-146.02;100.00;65310.94;5051876;28;19921;-66
2023/01/14 08:48:19;;;;;;;;;;;;;;;-146.02;100.00;65310.94;5052904;28;19998;-66
2023/01/14 08:50:45;;;;;;;;;;;;;;;-146.02;100.00;65310.94;5052235;28;19923;-66
2023/01/14 08:53:10;;;;;;;;;;;;;;;-146.02;100.00;65310.94;5032842;28;19914;-66
2023/01/14 08:55:35;;;;;;;;;;;;;;;-146.02;100.00;65310.94;5033081;28;20005;-66
2023/01/14 08:58:04;;;;;;;;;;;;;;;-146.02;100.00;65310.94;5032964;28;20340;-66
2023/01/14 09:00:29;;;;;;;;;;;;;;;-146.02;100.00;65310.94;5032809;28;19927;-65
2023/01/14 09:02:55;;;;;;;;;;;;;;;-146.02;100.00;65310.94;5032298;28;20000;-66
2023/01/14 09:05:20;;;;;;;;;;;;;;;-146.02;100.00;65310.94;5033214;28;19917;-66
2023/01/14 09:18:41;;;;;;;;;;;;;;;-146.02;100.00;65310.94;5036147;28;19917;-66
2023/01/14 09:21:07;;;;;;;;;;;;;;;-146.02;100.00;65310.94;5035752;28;19920;-66
2023/01/14 09:23:32;;;;;;;;;;;;;;;-146.02;100.00;65310.94;5035999;28;19921;-66
2023/01/14 09:25:57;;;;;;;;;;;;;;;-146.02;100.00;65310.94;5035826;28;20357;-66
2023/01/14 09:28:23;;;;;;;;;;;;;;;-146.02;100.00;65310.94;5073613;28;19963;-66
2023/01/14 09:30:48;;;;;;;;;;;;;;;-146.02;100.00;65310.94;5074583;28;19946;-66
2023/01/14 09:33:13;;;;;;;;;;;;;;;-146.02;100.00;65310.94;5051297;28;19917;-66
2023/01/14 09:35:39;;;;;;;;;;;;;;;-146.02;100.00;65310.94;5043411;28;19940;-66
2023/01/14 09:38:04;;;;;;;;;;;;;;;-146.02;100.00;65310.94;5043482;28;20285;-68
2023/01/14 09:40:29;;;;;;;;;;;;;;;-146.02;100.00;65310.94;5048496;28;19921;-67
2023/01/14 09:42:56;;;;;;;;;;;;;;;-146.02;100.00;65310.94;5038250;28;20327;-67
2023/01/14 09:45:27;;;;;;;;;;;;;;;-146.02;100.00;65310.94;5052699;28;19960;-67
2023/01/14 09:47:53;;;;;;;;;;;;;;;-146.02;100.00;65310.94;5052819;28;19941;-67
2023/01/14 09:50:27;;;;;;;;;;;;;;;-146.02;100.00;65310.94;5055040;28;19952;-67
2023/01/14 09:53:08;;;;;;;;;;;;;;;-146.02;100.00;65310.94;5054617;28;20293;-67
2023/01/14 09:55:39;;;;;;;;;;;;;;;-146.02;100.00;65310.94;5054841;28;19985;-67
2023/01/14 09:58:09;;;;;;;;;;;;;;;-146.02;100.00;65310.94;5054800;28;19913;-67
2023/01/14 10:00:42;;;;;;;;;;;;;;;-146.02;100.00;65310.94;5055054;28;19995;-67
2023/01/14 10:03:23;;;;;;;;;;;;;;;-146.02;100.00;65310.94;5054635;28;19970;-67
2023/01/14 10:06:07;;;;;;;;;;;;;;;-146.02;100.00;65310.94;5055105;28;19913;-67
2023/01/14 10:08:39;;;;;;;;;;;;;;;-146.02;100.00;65310.94;5054430;28;19913;-67
2023/01/14 10:11:05;;;;;;;;;;;;;;;-146.02;100.00;65310.94;5054810;28;19917;-67
2023/01/14 10:13:40;;;;;;;;;;;;;;;-146.02;100.00;65310.94;5054646;28;19920;-67
2023/01/14 10:16:15;;;;;;;;;;;;;;;-146.02;100.00;65310.94;5054708;28;20354;-67
2023/01/14 10:18:56;;;;;;;;;;;;;;;-146.02;100.00;65310.94;5054502;28;19966;-67
2023/01/14 10:21:28;;;;;;;;;;;;;;;-146.02;100.00;65310.94;5054590;28;19970;-67
2023/01/14 10:23:53;;;;;;;;;;;;;;;-146.02;100.00;65310.94;5054064;28;20395;-67
2023/01/14 10:26:20;;;;;;;;;;;;;;;-146.02;100.00;65310.94;5058484;28;19913;-67
2023/01/14 10:28:46;;;;;;;;;;;;;;;-146.02;100.00;65310.94;5094654;28;20283;-67
2023/01/14 10:31:37;;;;;;;;;;;;;;;-146.02;100.00;65310.94;5082154;28;19917;-67
2023/01/14 10:34:02;;;;;;;;;;;;;;;-146.02;100.00;65310.94;5053765;28;19912;-67
2023/01/14 10:36:30;;;;;;;;;;;;;;;-146.02;100.00;65310.94;5053705;28;19913;-67
2023/01/14 10:38:55;;;;;;;;;;;;;;;-146.02;100.00;65310.94;5053817;28;20054;-67
2023/01/14 10:41:48;;;;;;;;;;;;;;;-146.02;100.00;65310.94;5053918;28;19971;-67
2023/01/14 10:44:13;;;;;;;;;;;;;;;-146.02;100.00;65310.94;5065032;28;20018;-67
2023/01/14 10:46:41;;;;;;;;;;;;;;;-146.02;100.00;65310.94;5054780;28;19998;-67
2023/01/14 10:49:11;;;;;;;;;;;;;;;-146.02;100.00;65310.94;5054342;28;19913;-67
2023/01/14 10:51:38;;;;;;;;;;;;;;;-146.02;100.00;65310.94;5054456;28;20369;-67
2023/01/14 10:54:10;;;;;;;;;;;;;;;-146.02;100.00;65310.94;5054572;28;20346;-67
2023/01/14 10:56:36;;;;;;;;;;;;;;;-146.02;100.00;65310.94;5054761;28;20301;-70
2023/01/14 10:59:01;;;;;;;;;;;;;;;-146.02;100.00;65310.94;5053760;28;19920;-66
2023/01/14 11:01:27;;;;;;;;;;;;;;;-146.02;100.00;65310.94;5053681;28;19964;-67
2023/01/14 11:03:52;;;;;;;;;;;;;;;-146.02;100.00;65310.94;5053960;28;19986;-67
2023/01/14 11:06:18;;;;;;;;;;;;;;;-146.02;100.00;65310.94;5053945;28;19917;-67
2023/01/14 11:08:46;;;;;;;;;;;;;;;-146.02;100.00;65310.94;5053819;28;19913;-67
2023/01/14 11:11:14;;;;;;;;;;;;;;;-146.02;100.00;65310.94;5053847;28;19913;-67
2023/01/14 11:13:48;;;;;;;;;;;;;;;-146.02;100.00;65310.94;5053523;28;20346;-67
2023/01/14 11:16:25;;;;;;;;;;;;;;;-146.02;100.00;65310.94;5068420;28;19951;-66
2023/01/14 11:18:56;;;;;;;;;;;;;;;-146.02;100.00;65310.94;5060504;28;20378;-66
2023/01/14 11:21:22;;;;;;;;;;;;;;;-146.02;100.00;65310.94;5063981;28;19965;-67
2023/01/14 11:24:07;;;;;;;;;;;;;;;-146.02;100.00;65310.94;5060808;28;19917;-66
2023/01/14 11:26:36;;;;;;;;;;;;;;;-146.02;100.00;65310.94;5061425;28;19994;-66
2023/01/14 11:29:04;;;;;;;;;;;;;;;-146.02;100.00;65310.94;5062560;28;19943;-66
2023/01/14 11:31:32;;;;;;;;;;;;;;;-146.02;100.00;65310.94;5070395;28;19912;-66
2023/01/14 11:33:58;;;;;;;;;;;;;;;-146.02;100.00;65310.94;5073665;28;19913;-67
2023/01/14 11:36:24;;;;;;;;;;;;;;;-146.02;100.00;65310.94;5040782;28;19920;-67
2023/01/14 11:38:50;;;;;;;;;;;;;;;-146.02;100.00;65310.94;5053554;28;19960;-67
2023/01/14 11:41:33;;;;;;;;;;;;;;;-146.02;100.00;65310.94;5053360;28;20009;-67
2023/01/14 11:44:00;;;;;;;;;;;;;;;-146.02;100.00;65310.94;5052750;28;19928;-67
2023/01/14 11:46:26;;;;;;;;;;;;;;;-146.02;100.00;65310.94;5053646;28;20223;-64
2023/01/14 11:49:02;;;;;;;;;;;;;;;-146.02;100.00;65310.94;5053291;28;19920;-64
2023/01/14 11:51:29;;;;;;;;;;;;;;;-146.02;100.00;65310.94;5053231;28;19965;-64
2023/01/14 11:53:56;;;;;;;;;;;;;;;-146.02;100.00;65310.94;5053351;28;19966;-64
2023/01/14 11:56:27;;;;;;;;;;;;;;;-146.02;100.00;65310.94;5052977;28;19913;-64
2023/01/14 11:58:53;;;;;;;;;;;;;;;-146.02;100.00;65310.94;5060865;28;19924;-66
2023/01/14 12:01:28;;;;;;;;;;;;;;;-146.02;100.00;65310.94;5069283;28;19913;-64
2023/01/14 12:03:59;;;;;;;;;;;;;;;-146.02;100.00;65310.94;5044424;28;19943;-64
2023/01/14 12:06:28;;;;;;;;;;;;;;;-146.02;100.00;65310.94;5071019;28;20453;-65
2023/01/14 12:08:56;;;;;;;;;;;;;;;-146.02;100.00;65310.94;5067015;28;20307;-65
2023/01/14 12:11:25;;;;;;;;;;;;;;;-146.02;100.00;65310.94;5064204;28;19974;-64
2023/01/14 12:16:50;;;;;;;;;;;;;;;-146.02;100.00;65310.94;5070605;28;20006;-65
2023/01/14 12:19:15;;;;;;;;;;;;;;;-146.02;100.00;65310.94;5069198;28;20289;-66
2023/01/14 12:21:47;;;;;;;;;;;;;;;-146.02;100.00;65310.94;5070966;28;19913;-67
2023/01/14 12:24:16;;;;;;;;;;;;;;;-146.02;100.00;65310.94;5053465;28;19999;-65
2023/01/14 12:26:43;;;;;;;;;;;;;;;-146.02;100.00;65310.94;5070041;28;19984;-66
2023/01/14 12:29:21;;;;;;;;;;;;;;;-146.02;100.00;65310.94;5066478;28;20284;-65
2023/01/14 12:31:53;;;;;;;;;;;;;;;-146.02;100.00;65310.94;5069753;28;19916;-66
2023/01/14 12:34:28;;;;;;;;;;;;;;;-146.02;100.00;65310.94;5068021;28;20356;-65
2023/01/14 12:37:19;;;;;;;;;;;;;;;-146.02;100.00;65310.94;5069264;28;19916;-65
2023/01/14 12:45:53;;;;;;;;;;;;;;;-146.02;100.00;65310.94;5060819;28;19929;-64
2023/01/14 12:48:20;;;;;;;;;;;;;;;-146.02;100.00;65310.94;5073043;28;19934;-67
2023/01/14 12:50:58;;;;;;;;;;;;;;;-146.02;100.00;65310.94;5073430;28;20011;-66
2023/01/14 12:53:26;;;;;;;;;;;;;;;-146.02;100.00;65310.94;5068095;28;20328;-66
2023/01/14 12:55:53;;;;;;;;;;;;;;;-146.02;100.00;65310.94;5074077;28;19912;-66
2023/01/14 12:58:23;;;;;;;;;;;;;;;-146.02;100.00;65310.94;5063225;28;19917;-66
2023/01/14 13:00:54;;;;;;;;;;;;;;;-146.02;100.00;65310.94;5062831;28;19919;-66